Time;durP1;ratioP1;P1;durP2;ratioP2;P2;SDS_P1;SDS_P2;PMS_P1;PMS_P2;Temp;Humidity;BMP_temperature;BMP_pressure;BME280_temperature;BME280_humidity;BME280_pressure;Samples;Min_cycle;Max_cycle;Signal;HPM_P1;HPM_P2
2022/10/27 00:00:06;;;;;;;;;;;;;;;;;;352012;28;1310;-66
2022/10/27 00:00:16;;;;;;;;;;;;;;;;;;351299;28;1521;-65
2022/10/27 00:00:26;;;;;;;;;;;;;;;;;;351431;28;1317;-65
2022/10/27 00:00:36;;;;;;;;;;;;;;;;;;351843;28;913;-65
2022/10/27 00:00:47;;;;;;;;;;;;;;;;;;351673;28;1397;-66
2022/10/27 00:00:57;;;;;;;;;;;;;;;;;;351826;28;856;-66
2022/10/27 00:01:08;;;;;;;;;;;;;;;;;;350666;28;1377;-65
2022/10/27 00:01:18;;;;;;;;;;;;;;;;;;351296;28;1387;-65
2022/10/27 00:01:28;;;;;;;;;;;;;;;;;;351699;28;1426;-66
2022/10/27 00:01:38;;;;;;;;;;;;;;;;;;351396;28;1537;-65
2022/10/27 00:01:48;;;;;;;;;;;;;;;;;;350793;28;1434;-66
2022/10/27 00:01:58;;;;;;;;;;;;;;;;;;350598;28;829;-66
2022/10/27 00:02:09;;;;;;;;;;;;;;;;;;348772;28;1425;-66
2022/10/27 00:02:19;;;;;;;;;;;;;;;;;;349156;28;782;-65
2022/10/27 00:02:29;;;;;;;;;;;;;;;;;;348572;28;1355;-65
2022/10/27 00:02:39;;;;;;;;;;;;;;;;;;349759;28;772;-65
2022/10/27 00:02:49;;;;;;;;;;;;;;;;;;348792;28;1521;-65
2022/10/27 00:03:00;;;;;;;;;;;;;;;;;;349139;28;905;-65
2022/10/27 00:03:10;;;;;;;;;;;;;;;;;;348463;28;1453;-65
2022/10/27 00:03:21;;;;;;;;;;;;;;;;;;348952;28;1383;-66
2022/10/27 00:03:31;;;;;;;;;;;;;;;;;;348597;28;1863;-65
2022/10/27 00:03:41;;;;;;;;;;;;;;;;;;349315;28;1375;-66
2022/10/27 00:03:51;;;;;;;;;;;;;;;;;;348843;28;1795;-65
2022/10/27 00:04:02;;;;;;;;;;;;;;;;;;349677;28;1347;-66
2022/10/27 00:04:12;;;;;;;;;;;;;;;;;;349773;28;1298;-65
2022/10/27 00:04:22;;;;;;;;;;;;;;;;;;350731;28;1336;-65
2022/10/27 00:04:32;;;;;;;;;;;;;;;;;;349783;28;1570;-66
2022/10/27 00:04:42;;;;;;;;;;;;;;;;;;351000;28;1260;-66
2022/10/27 00:04:53;;;;;;;;;;;;;;;;;;349974;28;1752;-65
2022/10/27 00:05:03;;;;;;;;;;;;;;;;;;350037;28;1422;-65
2022/10/27 00:05:13;;;;;;;;;;;;;;;;;;350521;28;817;-65
2022/10/27 00:05:23;;;;;;;;;;;;;;;;;;350225;28;1323;-65
2022/10/27 00:05:34;;;;;;;;;;;;;;;;;;350629;28;999;-65
2022/10/27 00:05:45;;;;;;;;;;;;;;;;;;350174;28;1334;-65
2022/10/27 00:05:55;;;;;;;;;;;;;;;;;;350586;28;924;-65
2022/10/27 00:06:06;;;;;;;;;;;;;;;;;;350010;28;1379;-66
2022/10/27 00:06:16;;;;;;;;;;;;;;;;;;350603;28;905;-66
2022/10/27 00:06:26;;;;;;;;;;;;;;;;;;350044;28;1466;-65
2022/10/27 00:06:37;;;;;;;;;;;;;;;;;;350462;28;1015;-65
2022/10/27 00:06:47;;;;;;;;;;;;;;;;;;349765;28;1615;-65
2022/10/27 00:06:57;;;;;;;;;;;;;;;;;;350827;28;1720;-65
2022/10/27 00:07:07;;;;;;;;;;;;;;;;;;350624;28;896;-65
2022/10/27 00:07:17;;;;;;;;;;;;;;;;;;349709;28;1414;-66
2022/10/27 00:07:28;;;;;;;;;;;;;;;;;;350289;28;1503;-65
2022/10/27 00:07:38;;;;;;;;;;;;;;;;;;351272;28;912;-66
2022/10/27 00:07:48;;;;;;;;;;;;;;;;;;349610;28;1536;-65
2022/10/27 00:07:58;;;;;;;;;;;;;;;;;;349841;28;1301;-66
2022/10/27 00:08:12;;;;;;;;;;;;;;;;;;351382;28;996;-65
2022/10/27 00:08:22;;;;;;;;;;;;;;;;;;349655;28;1779;-65
2022/10/27 00:08:33;;;;;;;;;;;;;;;;;;351077;28;801;-65
2022/10/27 00:08:43;;;;;;;;;;;;;;;;;;347948;28;1996;-65
2022/10/27 00:08:53;;;;;;;;;;;;;;;;;;348969;28;1807;-66
2022/10/27 00:09:03;;;;;;;;;;;;;;;;;;349936;28;841;-66
2022/10/27 00:09:13;;;;;;;;;;;;;;;;;;348617;28;1391;-65
2022/10/27 00:09:24;;;;;;;;;;;;;;;;;;348917;28;1902;-65
2022/10/27 00:09:34;;;;;;;;;;;;;;;;;;348985;28;1381;-66
2022/10/27 00:09:44;;;;;;;;;;;;;;;;;;348919;28;1491;-66
2022/10/27 00:09:54;;;;;;;;;;;;;;;;;;348883;28;1403;-65
2022/10/27 00:10:05;;;;;;;;;;;;;;;;;;349349;28;1670;-65
2022/10/27 00:10:15;;;;;;;;;;;;;;;;;;347977;28;1513;-65
2022/10/27 00:10:25;;;;;;;;;;;;;;;;;;349109;28;972;-65
2022/10/27 00:10:37;;;;;;;;;;;;;;;;;;348163;28;1367;-65
2022/10/27 00:10:55;;;;;;;;;;;;;;;;;;350234;28;1713;-65
2022/10/27 00:11:06;;;;;;;;;;;;;;;;;;350264;28;1545;-65
2022/10/27 00:11:16;;;;;;;;;;;;;;;;;;350053;28;1425;-66
2022/10/27 00:11:26;;;;;;;;;;;;;;;;;;350495;28;1154;-65
2022/10/27 00:11:36;;;;;;;;;;;;;;;;;;351336;28;920;-65
2022/10/27 00:11:47;;;;;;;;;;;;;;;;;;350009;28;1442;-66
2022/10/27 00:11:57;;;;;;;;;;;;;;;;;;350657;28;818;-65
2022/10/27 00:12:07;;;;;;;;;;;;;;;;;;349958;28;1323;-65
2022/10/27 00:12:17;;;;;;;;;;;;;;;;;;350348;28;1625;-66
2022/10/27 00:12:28;;;;;;;;;;;;;;;;;;350245;28;909;-65
2022/10/27 00:12:39;;;;;;;;;;;;;;;;;;349540;28;1336;-65
2022/10/27 00:12:49;;;;;;;;;;;;;;;;;;350449;28;853;-66
2022/10/27 00:12:59;;;;;;;;;;;;;;;;;;350193;28;1352;-65
2022/10/27 00:13:10;;;;;;;;;;;;;;;;;;350672;28;1012;-65
2022/10/27 00:13:20;;;;;;;;;;;;;;;;;;350021;28;1401;-65
2022/10/27 00:13:30;;;;;;;;;;;;;;;;;;350415;28;979;-65
2022/10/27 00:13:40;;;;;;;;;;;;;;;;;;350139;28;1437;-65
2022/10/27 00:13:50;;;;;;;;;;;;;;;;;;350317;28;1090;-65
2022/10/27 00:14:01;;;;;;;;;;;;;;;;;;349678;28;1478;-65
2022/10/27 00:14:11;;;;;;;;;;;;;;;;;;350943;28;1438;-65
2022/10/27 00:14:21;;;;;;;;;;;;;;;;;;349866;28;1748;-66
2022/10/27 00:14:32;;;;;;;;;;;;;;;;;;350281;28;1371;-65
2022/10/27 00:14:42;;;;;;;;;;;;;;;;;;349954;28;1527;-65
2022/10/27 00:14:52;;;;;;;;;;;;;;;;;;351285;28;944;-66
2022/10/27 00:15:02;;;;;;;;;;;;;;;;;;350008;28;1372;-65
2022/10/27 00:15:13;;;;;;;;;;;;;;;;;;351127;28;1048;-65
2022/10/27 00:15:23;;;;;;;;;;;;;;;;;;349850;28;1356;-65
2022/10/27 00:15:33;;;;;;;;;;;;;;;;;;350641;28;940;-65
2022/10/27 00:15:53;;;;;;;;;;;;;;;;;;350012;28;1359;-65
2022/10/27 00:16:09;;;;;;;;;;;;;;;;;;349794;28;1328;-65
2022/10/27 00:16:19;;;;;;;;;;;;;;;;;;349523;28;1299;-65
2022/10/27 00:16:30;;;;;;;;;;;;;;;;;;350099;28;1511;-65
2022/10/27 00:16:40;;;;;;;;;;;;;;;;;;350549;28;1463;-65
2022/10/27 00:16:54;;;;;;;;;;;;;;;;;;350033;28;1507;-65
2022/10/27 00:17:04;;;;;;;;;;;;;;;;;;349993;28;1315;-65
2022/10/27 00:17:14;;;;;;;;;;;;;;;;;;350430;28;1012;-65
2022/10/27 00:17:25;;;;;;;;;;;;;;;;;;350168;28;1335;-65
2022/10/27 00:17:35;;;;;;;;;;;;;;;;;;350411;28;1036;-65
2022/10/27 00:17:45;;;;;;;;;;;;;;;;;;349552;28;1375;-65
2022/10/27 00:17:55;;;;;;;;;;;;;;;;;;350976;28;854;-66
2022/10/27 00:18:09;;;;;;;;;;;;;;;;;;349600;28;1494;-66
2022/10/27 00:18:19;;;;;;;;;;;;;;;;;;349534;28;1416;-66
2022/10/27 00:18:30;;;;;;;;;;;;;;;;;;350063;28;1534;-65
2022/10/27 00:18:41;;;;;;;;;;;;;;;;;;350498;28;1397;-66
2022/10/27 00:18:51;;;;;;;;;;;;;;;;;;350561;28;1008;-65
2022/10/27 00:19:01;;;;;;;;;;;;;;;;;;350236;28;1363;-65
2022/10/27 00:19:11;;;;;;;;;;;;;;;;;;350356;28;957;-65
2022/10/27 00:19:23;;;;;;;;;;;;;;;;;;350170;28;1509;-65
2022/10/27 00:19:33;;;;;;;;;;;;;;;;;;350463;28;1157;-66
2022/10/27 00:19:43;;;;;;;;;;;;;;;;;;350105;28;1426;-65
2022/10/27 00:19:53;;;;;;;;;;;;;;;;;;350241;28;840;-65
2022/10/27 00:20:04;;;;;;;;;;;;;;;;;;350196;28;1538;-65
2022/10/27 00:20:15;;;;;;;;;;;;;;;;;;350565;28;1299;-66
2022/10/27 00:20:25;;;;;;;;;;;;;;;;;;349426;28;1591;-66
2022/10/27 00:20:35;;;;;;;;;;;;;;;;;;350323;28;917;-65
2022/10/27 00:20:55;;;;;;;;;;;;;;;;;;350043;28;1474;-65
2022/10/27 00:21:06;;;;;;;;;;;;;;;;;;349586;28;1294;-65
2022/10/27 00:21:18;;;;;;;;;;;;;;;;;;350514;28;912;-65
2022/10/27 00:21:28;;;;;;;;;;;;;;;;;;348170;28;1375;-65
2022/10/27 00:21:38;;;;;;;;;;;;;;;;;;349035;28;925;-66
2022/10/27 00:21:50;;;;;;;;;;;;;;;;;;348459;28;1371;-65
2022/10/27 00:22:00;;;;;;;;;;;;;;;;;;348666;28;1395;-65
2022/10/27 00:22:11;;;;;;;;;;;;;;;;;;348425;28;1507;-65
2022/10/27 00:22:21;;;;;;;;;;;;;;;;;;349123;28;1320;-65
2022/10/27 00:22:31;;;;;;;;;;;;;;;;;;348327;28;1534;-65
2022/10/27 00:22:41;;;;;;;;;;;;;;;;;;349228;28;1350;-65
2022/10/27 00:22:53;;;;;;;;;;;;;;;;;;348080;28;1576;-65
2022/10/27 00:23:03;;;;;;;;;;;;;;;;;;349189;28;1495;-65
2022/10/27 00:23:14;;;;;;;;;;;;;;;;;;348538;28;1887;-65
2022/10/27 00:23:24;;;;;;;;;;;;;;;;;;349740;28;1326;-65
2022/10/27 00:23:34;;;;;;;;;;;;;;;;;;350050;28;1685;-65
2022/10/27 00:23:47;;;;;;;;;;;;;;;;;;349755;28;1383;-65
2022/10/27 00:23:57;;;;;;;;;;;;;;;;;;350814;28;1367;-66
2022/10/27 00:24:07;;;;;;;;;;;;;;;;;;349710;28;1637;-65
2022/10/27 00:24:18;;;;;;;;;;;;;;;;;;351060;28;1367;-66
2022/10/27 00:24:28;;;;;;;;;;;;;;;;;;349956;28;1566;-65
2022/10/27 00:24:38;;;;;;;;;;;;;;;;;;351098;28;1434;-65
2022/10/27 00:24:48;;;;;;;;;;;;;;;;;;349528;28;1847;-66
2022/10/27 00:24:59;;;;;;;;;;;;;;;;;;350865;28;1423;-65
2022/10/27 00:25:09;;;;;;;;;;;;;;;;;;349586;28;1768;-65
2022/10/27 00:25:19;;;;;;;;;;;;;;;;;;350229;28;1339;-65
2022/10/27 00:25:29;;;;;;;;;;;;;;;;;;350281;28;901;-66
2022/10/27 00:25:40;;;;;;;;;;;;;;;;;;350199;28;1431;-65
2022/10/27 00:25:54;;;;;;;;;;;;;;;;;;350346;28;776;-65
2022/10/27 00:26:06;;;;;;;;;;;;;;;;;;349699;28;1287;-65
2022/10/27 00:26:17;;;;;;;;;;;;;;;;;;350121;28;810;-66
2022/10/27 00:26:27;;;;;;;;;;;;;;;;;;349635;28;1761;-65
2022/10/27 00:26:37;;;;;;;;;;;;;;;;;;350855;28;1367;-65
2022/10/27 00:26:47;;;;;;;;;;;;;;;;;;349531;28;1495;-65
2022/10/27 00:26:57;;;;;;;;;;;;;;;;;;351102;28;857;-65
2022/10/27 00:27:08;;;;;;;;;;;;;;;;;;349435;28;1582;-65
2022/10/27 00:27:18;;;;;;;;;;;;;;;;;;351080;28;991;-65
2022/10/27 00:27:28;;;;;;;;;;;;;;;;;;349486;28;1395;-65
2022/10/27 00:27:38;;;;;;;;;;;;;;;;;;350988;28;913;-65
2022/10/27 00:27:48;;;;;;;;;;;;;;;;;;349673;28;1365;-65
2022/10/27 00:27:58;;;;;;;;;;;;;;;;;;350910;28;901;-66
2022/10/27 00:28:09;;;;;;;;;;;;;;;;;;349779;28;1410;-65
2022/10/27 00:28:19;;;;;;;;;;;;;;;;;;350948;28;976;-65
2022/10/27 00:28:29;;;;;;;;;;;;;;;;;;349455;28;1442;-65
2022/10/27 00:28:40;;;;;;;;;;;;;;;;;;350253;28;1303;-65
2022/10/27 00:28:50;;;;;;;;;;;;;;;;;;350052;28;1789;-65
2022/10/27 00:29:00;;;;;;;;;;;;;;;;;;350327;28;1394;-65
2022/10/27 00:29:11;;;;;;;;;;;;;;;;;;350003;28;1736;-65
2022/10/27 00:29:21;;;;;;;;;;;;;;;;;;350473;28;1296;-65
2022/10/27 00:29:31;;;;;;;;;;;;;;;;;;350445;28;1910;-65
2022/10/27 00:29:41;;;;;;;;;;;;;;;;;;350272;28;1352;-65
2022/10/27 00:29:51;;;;;;;;;;;;;;;;;;350492;28;932;-65
2022/10/27 00:30:02;;;;;;;;;;;;;;;;;;349427;28;1400;-65
2022/10/27 00:30:12;;;;;;;;;;;;;;;;;;350161;28;957;-65
2022/10/27 00:30:22;;;;;;;;;;;;;;;;;;349784;28;1331;-65
2022/10/27 00:30:32;;;;;;;;;;;;;;;;;;350504;28;1744;-66
2022/10/27 00:30:42;;;;;;;;;;;;;;;;;;350052;28;821;-65
2022/10/27 00:30:59;;;;;;;;;;;;;;;;;;349544;28;1398;-65
2022/10/27 00:31:20;;;;;;;;;;;;;;;;;;350686;28;1026;-65
2022/10/27 00:31:30;;;;;;;;;;;;;;;;;;350630;28;1024;-65
2022/10/27 00:31:40;;;;;;;;;;;;;;;;;;350168;28;1339;-65
2022/10/27 00:31:50;;;;;;;;;;;;;;;;;;350539;28;941;-65
2022/10/27 00:32:01;;;;;;;;;;;;;;;;;;350328;28;1418;-65
2022/10/27 00:32:11;;;;;;;;;;;;;;;;;;350632;28;806;-66
2022/10/27 00:32:21;;;;;;;;;;;;;;;;;;349983;28;1393;-66
2022/10/27 00:32:31;;;;;;;;;;;;;;;;;;350510;28;928;-65
2022/10/27 00:32:41;;;;;;;;;;;;;;;;;;350037;28;1411;-65
2022/10/27 00:32:52;;;;;;;;;;;;;;;;;;350362;28;1027;-65
2022/10/27 00:33:02;;;;;;;;;;;;;;;;;;349897;28;1431;-65
2022/10/27 00:33:13;;;;;;;;;;;;;;;;;;350475;28;976;-65
2022/10/27 00:33:23;;;;;;;;;;;;;;;;;;349831;28;1717;-65
2022/10/27 00:33:33;;;;;;;;;;;;;;;;;;350681;28;1322;-65
2022/10/27 00:33:44;;;;;;;;;;;;;;;;;;349827;28;1526;-65
2022/10/27 00:33:54;;;;;;;;;;;;;;;;;;349653;28;1383;-65
2022/10/27 00:34:04;;;;;;;;;;;;;;;;;;349806;28;1523;-65
2022/10/27 00:34:15;;;;;;;;;;;;;;;;;;349463;28;1315;-66
2022/10/27 00:34:25;;;;;;;;;;;;;;;;;;349783;28;1515;-65
2022/10/27 00:34:35;;;;;;;;;;;;;;;;;;350711;28;1280;-65
2022/10/27 00:34:45;;;;;;;;;;;;;;;;;;349861;28;1542;-65
2022/10/27 00:34:55;;;;;;;;;;;;;;;;;;350701;28;1533;-65
2022/10/27 00:35:06;;;;;;;;;;;;;;;;;;349977;28;1578;-65
2022/10/27 00:35:16;;;;;;;;;;;;;;;;;;350560;28;1456;-65
2022/10/27 00:35:26;;;;;;;;;;;;;;;;;;350194;28;1566;-65
2022/10/27 00:35:36;;;;;;;;;;;;;;;;;;349829;28;1339;-65
2022/10/27 00:35:46;;;;;;;;;;;;;;;;;;350829;28;984;-65
2022/10/27 00:36:04;;;;;;;;;;;;;;;;;;349919;28;1319;-65
2022/10/27 00:36:15;;;;;;;;;;;;;;;;;;349457;28;1417;-65
2022/10/27 00:36:25;;;;;;;;;;;;;;;;;;350400;28;925;-65
2022/10/27 00:36:35;;;;;;;;;;;;;;;;;;350212;28;1351;-65
2022/10/27 00:36:45;;;;;;;;;;;;;;;;;;350519;28;932;-65
2022/10/27 00:36:56;;;;;;;;;;;;;;;;;;349459;28;1383;-65
2022/10/27 00:37:06;;;;;;;;;;;;;;;;;;350957;28;1092;-66
2022/10/27 00:37:16;;;;;;;;;;;;;;;;;;349508;28;1372;-65
2022/10/27 00:37:27;;;;;;;;;;;;;;;;;;350966;28;925;-65
2022/10/27 00:37:37;;;;;;;;;;;;;;;;;;349474;28;1331;-65
2022/10/27 00:37:47;;;;;;;;;;;;;;;;;;350987;28;896;-65
2022/10/27 00:37:57;;;;;;;;;;;;;;;;;;349393;28;1548;-65
2022/10/27 00:38:07;;;;;;;;;;;;;;;;;;351003;28;822;-65
2022/10/27 00:38:18;;;;;;;;;;;;;;;;;;349893;28;1363;-65
2022/10/27 00:38:28;;;;;;;;;;;;;;;;;;350092;28;1358;-65
2022/10/27 00:38:38;;;;;;;;;;;;;;;;;;349912;28;1741;-65
2022/10/27 00:38:52;;;;;;;;;;;;;;;;;;350297;28;1422;-65
2022/10/27 00:39:02;;;;;;;;;;;;;;;;;;350634;28;861;-65
2022/10/27 00:39:12;;;;;;;;;;;;;;;;;;349954;28;1556;-65
2022/10/27 00:39:23;;;;;;;;;;;;;;;;;;350413;28;845;-66
2022/10/27 00:39:33;;;;;;;;;;;;;;;;;;349799;28;1474;-65
2022/10/27 00:39:43;;;;;;;;;;;;;;;;;;350657;28;964;-65
2022/10/27 00:39:53;;;;;;;;;;;;;;;;;;349793;28;1497;-65
2022/10/27 00:40:03;;;;;;;;;;;;;;;;;;350386;28;1319;-66
2022/10/27 00:40:14;;;;;;;;;;;;;;;;;;349683;28;1238;-65
2022/10/27 00:40:24;;;;;;;;;;;;;;;;;;350816;28;1418;-65
2022/10/27 00:40:35;;;;;;;;;;;;;;;;;;350179;28;1499;-65
2022/10/27 00:40:45;;;;;;;;;;;;;;;;;;350952;28;1484;-65
2022/10/27 00:40:55;;;;;;;;;;;;;;;;;;349988;28;1574;-65
2022/10/27 00:41:07;;;;;;;;;;;;;;;;;;350711;28;1300;-65
2022/10/27 00:41:23;;;;;;;;;;;;;;;;;;350093;28;1530;-65
2022/10/27 00:41:38;;;;;;;;;;;;;;;;;;349509;28;1327;-65
2022/10/27 00:41:48;;;;;;;;;;;;;;;;;;349382;28;1323;-65
2022/10/27 00:41:58;;;;;;;;;;;;;;;;;;350416;28;980;-65
2022/10/27 00:42:12;;;;;;;;;;;;;;;;;;350053;28;1355;-65
2022/10/27 00:42:22;;;;;;;;;;;;;;;;;;350916;28;1632;-65
2022/10/27 00:42:32;;;;;;;;;;;;;;;;;;349457;28;1387;-65
2022/10/27 00:42:42;;;;;;;;;;;;;;;;;;350949;28;1157;-65
2022/10/27 00:42:52;;;;;;;;;;;;;;;;;;349664;28;1783;-65
2022/10/27 00:43:21;;;;;;;;;;;;;;;;;;351078;28;917;-66
2022/10/27 00:43:33;;;;;;;;;;;;;;;;;;349928;28;1522;-65
2022/10/27 00:43:43;;;;;;;;;;;;;;;;;;350366;28;1328;-65
2022/10/27 00:43:54;;;;;;;;;;;;;;;;;;350557;28;1023;-65
2022/10/27 00:44:23;;;;;;;;;;;;;;;;;;349548;28;1477;-65
2022/10/27 00:44:38;;;;;;;;;;;;;;;;;;349826;28;1052;-66
2022/10/27 00:44:49;;;;;;;;;;;;;;;;;;349867;28;976;-65
2022/10/27 00:44:59;;;;;;;;;;;;;;;;;;349902;28;913;-65
2022/10/27 00:45:09;;;;;;;;;;;;;;;;;;349989;28;865;-65
2022/10/27 00:45:20;;;;;;;;;;;;;;;;;;349962;28;929;-65
2022/10/27 00:45:30;;;;;;;;;;;;;;;;;;349869;28;996;-65
2022/10/27 00:45:40;;;;;;;;;;;;;;;;;;349922;28;1016;-65
2022/10/27 00:45:51;;;;;;;;;;;;;;;;;;349944;28;983;-66
2022/10/27 00:46:13;;;;;;;;;;;;;;;;;;349869;28;925;-66
2022/10/27 00:46:38;;;;;;;;;;;;;;;;;;349807;28;917;-65
2022/10/27 00:46:49;;;;;;;;;;;;;;;;;;349885;28;1055;-65
2022/10/27 00:47:19;;;;;;;;;;;;;;;;;;349956;28;841;-65
2022/10/27 00:47:33;;;;;;;;;;;;;;;;;;345550;28;1072;-65
2022/10/27 00:47:43;;;;;;;;;;;;;;;;;;345706;28;941;-65
2022/10/27 00:47:53;;;;;;;;;;;;;;;;;;349216;28;1137;-65
2022/10/27 00:48:04;;;;;;;;;;;;;;;;;;349924;28;961;-66
2022/10/27 00:48:14;;;;;;;;;;;;;;;;;;349918;28;1056;-65
2022/10/27 00:48:24;;;;;;;;;;;;;;;;;;349953;28;849;-66
2022/10/27 00:48:35;;;;;;;;;;;;;;;;;;349896;28;977;-65
2022/10/27 00:48:47;;;;;;;;;;;;;;;;;;349910;28;972;-65
2022/10/27 00:49:00;;;;;;;;;;;;;;;;;;349902;28;972;-65
2022/10/27 00:49:15;;;;;;;;;;;;;;;;;;349959;28;964;-66
2022/10/27 00:49:27;;;;;;;;;;;;;;;;;;349825;28;1979;-65
2022/10/27 00:49:41;;;;;;;;;;;;;;;;;;349563;28;2028;-65
2022/10/27 00:49:51;;;;;;;;;;;;;;;;;;349896;28;988;-65
2022/10/27 00:50:05;;;;;;;;;;;;;;;;;;349936;28;901;-65
2022/10/27 00:50:18;;;;;;;;;;;;;;;;;;349875;28;1000;-66
2022/10/27 00:50:28;;;;;;;;;;;;;;;;;;349803;28;1094;-66
2022/10/27 00:50:38;;;;;;;;;;;;;;;;;;349955;28;972;-65
2022/10/27 00:50:49;;;;;;;;;;;;;;;;;;349966;28;955;-65
2022/10/27 00:51:01;;;;;;;;;;;;;;;;;;349909;28;933;-65
2022/10/27 00:51:14;;;;;;;;;;;;;;;;;;349910;28;1008;-66
2022/10/27 00:51:25;;;;;;;;;;;;;;;;;;349946;28;956;-65
2022/10/27 00:51:37;;;;;;;;;;;;;;;;;;350495;28;2052;-65
2022/10/27 00:51:51;;;;;;;;;;;;;;;;;;352706;28;983;-65
2022/10/27 00:52:03;;;;;;;;;;;;;;;;;;352704;28;932;-65
2022/10/27 00:52:25;;;;;;;;;;;;;;;;;;352775;28;912;-66
2022/10/27 00:52:40;;;;;;;;;;;;;;;;;;352758;28;975;-65
2022/10/27 00:52:52;;;;;;;;;;;;;;;;;;352736;28;995;-65
2022/10/27 00:53:02;;;;;;;;;;;;;;;;;;352635;28;975;-66
2022/10/27 00:53:13;;;;;;;;;;;;;;;;;;352705;28;1007;-65
2022/10/27 00:53:23;;;;;;;;;;;;;;;;;;352763;28;924;-65
2022/10/27 00:53:33;;;;;;;;;;;;;;;;;;352722;28;1011;-65
2022/10/27 00:53:44;;;;;;;;;;;;;;;;;;352675;28;952;-65
2022/10/27 00:53:54;;;;;;;;;;;;;;;;;;352745;28;979;-65
2022/10/27 00:54:05;;;;;;;;;;;;;;;;;;352750;28;924;-66
2022/10/27 00:54:17;;;;;;;;;;;;;;;;;;352779;28;862;-65
2022/10/27 00:54:29;;;;;;;;;;;;;;;;;;352651;28;924;-66
2022/10/27 00:54:40;;;;;;;;;;;;;;;;;;352722;28;875;-66
2022/10/27 00:54:51;;;;;;;;;;;;;;;;;;352699;28;948;-65
2022/10/27 00:55:04;;;;;;;;;;;;;;;;;;352743;28;964;-65
2022/10/27 00:55:21;;;;;;;;;;;;;;;;;;352641;28;912;-65
2022/10/27 00:55:37;;;;;;;;;;;;;;;;;;352550;28;1218;-66
2022/10/27 00:55:47;;;;;;;;;;;;;;;;;;352705;28;928;-65
2022/10/27 00:55:57;;;;;;;;;;;;;;;;;;352706;28;829;-65
2022/10/27 00:56:08;;;;;;;;;;;;;;;;;;352743;28;967;-65
2022/10/27 00:56:18;;;;;;;;;;;;;;;;;;352689;28;1071;-66
2022/10/27 00:56:29;;;;;;;;;;;;;;;;;;352764;28;864;-66
2022/10/27 00:56:40;;;;;;;;;;;;;;;;;;352740;28;853;-66
2022/10/27 00:56:51;;;;;;;;;;;;;;;;;;352732;28;813;-66
2022/10/27 00:57:01;;;;;;;;;;;;;;;;;;352777;28;798;-65
2022/10/27 00:57:12;;;;;;;;;;;;;;;;;;352722;28;912;-65
2022/10/27 00:57:22;;;;;;;;;;;;;;;;;;352650;28;999;-66
2022/10/27 00:57:33;;;;;;;;;;;;;;;;;;352755;28;929;-66
2022/10/27 00:57:46;;;;;;;;;;;;;;;;;;352678;28;983;-66
2022/10/27 00:57:59;;;;;;;;;;;;;;;;;;352528;28;1129;-65
2022/10/27 00:58:11;;;;;;;;;;;;;;;;;;352709;28;990;-65
2022/10/27 00:58:21;;;;;;;;;;;;;;;;;;352767;28;821;-65
2022/10/27 00:58:32;;;;;;;;;;;;;;;;;;352738;28;939;-65
2022/10/27 00:58:44;;;;;;;;;;;;;;;;;;352737;28;978;-66
2022/10/27 00:58:54;;;;;;;;;;;;;;;;;;350489;28;1556;-65
2022/10/27 00:59:04;;;;;;;;;;;;;;;;;;349454;28;1296;-65
2022/10/27 00:59:15;;;;;;;;;;;;;;;;;;349969;28;1792;-65
2022/10/27 00:59:25;;;;;;;;;;;;;;;;;;349373;28;1346;-65
2022/10/27 00:59:36;;;;;;;;;;;;;;;;;;350657;28;931;-66
2022/10/27 00:59:46;;;;;;;;;;;;;;;;;;349755;28;1318;-65
2022/10/27 00:59:57;;;;;;;;;;;;;;;;;;350806;28;944;-65
2022/10/27 01:00:07;;;;;;;;;;;;;;;;;;349629;28;1364;-65
2022/10/27 01:00:18;;;;;;;;;;;;;;;;;;350976;28;1067;-65
2022/10/27 01:00:28;;;;;;;;;;;;;;;;;;349437;28;1596;-65
2022/10/27 01:00:40;;;;;;;;;;;;;;;;;;350202;28;1485;-65
2022/10/27 01:00:50;;;;;;;;;;;;;;;;;;350372;28;924;-65
2022/10/27 01:01:00;;;;;;;;;;;;;;;;;;350204;28;1374;-65
2022/10/27 01:01:11;;;;;;;;;;;;;;;;;;350445;28;991;-66
2022/10/27 01:01:21;;;;;;;;;;;;;;;;;;350178;28;1353;-65
2022/10/27 01:01:31;;;;;;;;;;;;;;;;;;350044;28;1503;-65
2022/10/27 01:01:43;;;;;;;;;;;;;;;;;;350923;28;908;-65
2022/10/27 01:01:54;;;;;;;;;;;;;;;;;;349902;28;851;-66
2022/10/27 01:02:05;;;;;;;;;;;;;;;;;;349509;28;1356;-65
2022/10/27 01:02:16;;;;;;;;;;;;;;;;;;350922;28;916;-65
2022/10/27 01:02:26;;;;;;;;;;;;;;;;;;349815;28;1379;-65
2022/10/27 01:02:37;;;;;;;;;;;;;;;;;;350808;28;920;-66
2022/10/27 01:02:48;;;;;;;;;;;;;;;;;;349576;28;1395;-65
2022/10/27 01:02:59;;;;;;;;;;;;;;;;;;351038;28;1216;-65
2022/10/27 01:03:11;;;;;;;;;;;;;;;;;;349471;28;1553;-65
2022/10/27 01:03:22;;;;;;;;;;;;;;;;;;349551;28;1347;-65
2022/10/27 01:03:32;;;;;;;;;;;;;;;;;;349942;28;1744;-65
2022/10/27 01:03:43;;;;;;;;;;;;;;;;;;350354;28;1375;-65
2022/10/27 01:03:54;;;;;;;;;;;;;;;;;;350222;28;936;-65
2022/10/27 01:04:05;;;;;;;;;;;;;;;;;;349540;28;1391;-65
2022/10/27 01:04:17;;;;;;;;;;;;;;;;;;350884;28;888;-65
2022/10/27 01:04:34;;;;;;;;;;;;;;;;;;349826;28;1499;-65
2022/10/27 01:04:49;;;;;;;;;;;;;;;;;;349425;28;1362;-65
2022/10/27 01:05:09;;;;;;;;;;;;;;;;;;349403;28;1366;-65
2022/10/27 01:05:23;;;;;;;;;;;;;;;;;;349394;28;1410;-65
2022/10/27 01:05:34;;;;;;;;;;;;;;;;;;350106;28;1438;-65
2022/10/27 01:05:44;;;;;;;;;;;;;;;;;;349793;28;1577;-66
2022/10/27 01:05:55;;;;;;;;;;;;;;;;;;349592;28;1296;-65
2022/10/27 01:06:07;;;;;;;;;;;;;;;;;;349685;28;1526;-65
2022/10/27 01:06:17;;;;;;;;;;;;;;;;;;351342;28;907;-65
2022/10/27 01:06:27;;;;;;;;;;;;;;;;;;350323;28;1023;-65
2022/10/27 01:06:37;;;;;;;;;;;;;;;;;;349637;28;1399;-65
2022/10/27 01:06:47;;;;;;;;;;;;;;;;;;350933;28;897;-65
2022/10/27 01:06:59;;;;;;;;;;;;;;;;;;349514;28;1312;-66
2022/10/27 01:07:12;;;;;;;;;;;;;;;;;;350926;28;777;-66
2022/10/27 01:07:22;;;;;;;;;;;;;;;;;;350229;28;1475;-65
2022/10/27 01:07:33;;;;;;;;;;;;;;;;;;350414;28;1406;-66
2022/10/27 01:07:44;;;;;;;;;;;;;;;;;;350052;28;1645;-66
2022/10/27 01:07:56;;;;;;;;;;;;;;;;;;350170;28;1529;-66
2022/10/27 01:08:06;;;;;;;;;;;;;;;;;;350436;28;940;-65
2022/10/27 01:08:16;;;;;;;;;;;;;;;;;;350036;28;1367;-65
2022/10/27 01:08:27;;;;;;;;;;;;;;;;;;350397;28;960;-65
2022/10/27 01:08:38;;;;;;;;;;;;;;;;;;349992;28;1363;-65
2022/10/27 01:08:49;;;;;;;;;;;;;;;;;;350576;28;928;-66
2022/10/27 01:08:59;;;;;;;;;;;;;;;;;;349758;28;1399;-65
2022/10/27 01:09:11;;;;;;;;;;;;;;;;;;350734;28;968;-65
2022/10/27 01:09:21;;;;;;;;;;;;;;;;;;350168;28;1430;-65
2022/10/27 01:09:31;;;;;;;;;;;;;;;;;;350210;28;1914;-65
2022/10/27 01:09:42;;;;;;;;;;;;;;;;;;350074;28;1343;-65
2022/10/27 01:09:52;;;;;;;;;;;;;;;;;;350344;28;888;-65
2022/10/27 01:10:03;;;;;;;;;;;;;;;;;;350024;28;1485;-65
2022/10/27 01:10:13;;;;;;;;;;;;;;;;;;350390;28;826;-65
2022/10/27 01:10:24;;;;;;;;;;;;;;;;;;350152;28;1509;-65
2022/10/27 01:10:34;;;;;;;;;;;;;;;;;;350515;28;921;-65
2022/10/27 01:10:45;;;;;;;;;;;;;;;;;;349964;28;1379;-65
2022/10/27 01:10:55;;;;;;;;;;;;;;;;;;350339;28;1233;-65
2022/10/27 01:11:05;;;;;;;;;;;;;;;;;;349724;28;1601;-65
2022/10/27 01:11:15;;;;;;;;;;;;;;;;;;350674;28;1363;-65
2022/10/27 01:11:25;;;;;;;;;;;;;;;;;;349744;28;1317;-65
2022/10/27 01:11:35;;;;;;;;;;;;;;;;;;351011;28;1399;-65
2022/10/27 01:11:46;;;;;;;;;;;;;;;;;;349651;28;1720;-65
2022/10/27 01:11:56;;;;;;;;;;;;;;;;;;351040;28;917;-66
2022/10/27 01:12:07;;;;;;;;;;;;;;;;;;349449;28;1656;-65
2022/10/27 01:12:17;;;;;;;;;;;;;;;;;;350974;28;1390;-65
2022/10/27 01:12:27;;;;;;;;;;;;;;;;;;349472;28;1735;-66
2022/10/27 01:12:37;;;;;;;;;;;;;;;;;;351110;28;854;-65
2022/10/27 01:12:48;;;;;;;;;;;;;;;;;;349602;28;1615;-65
2022/10/27 01:12:59;;;;;;;;;;;;;;;;;;351062;28;923;-66
2022/10/27 01:13:09;;;;;;;;;;;;;;;;;;349565;28;1632;-65
2022/10/27 01:13:19;;;;;;;;;;;;;;;;;;351081;28;925;-65
2022/10/27 01:13:30;;;;;;;;;;;;;;;;;;349456;28;1297;-65
2022/10/27 01:13:40;;;;;;;;;;;;;;;;;;350923;28;1379;-66
2022/10/27 01:13:50;;;;;;;;;;;;;;;;;;349678;28;1570;-65
2022/10/27 01:14:01;;;;;;;;;;;;;;;;;;350061;28;1348;-66
2022/10/27 01:14:11;;;;;;;;;;;;;;;;;;350184;28;877;-65
2022/10/27 01:14:22;;;;;;;;;;;;;;;;;;350258;28;1351;-65
2022/10/27 01:14:32;;;;;;;;;;;;;;;;;;350240;28;1008;-65
2022/10/27 01:14:42;;;;;;;;;;;;;;;;;;350141;28;1415;-65
2022/10/27 01:14:52;;;;;;;;;;;;;;;;;;350335;28;912;-65
2022/10/27 01:15:03;;;;;;;;;;;;;;;;;;350124;28;1340;-65
2022/10/27 01:15:14;;;;;;;;;;;;;;;;;;350249;28;956;-65
2022/10/27 01:15:32;;;;;;;;;;;;;;;;;;350185;28;1360;-65
2022/10/27 01:15:42;;;;;;;;;;;;;;;;;;349400;28;1342;-66
2022/10/27 01:15:59;;;;;;;;;;;;;;;;;;350567;28;909;-66
2022/10/27 01:16:24;;;;;;;;;;;;;;;;;;349975;28;1510;-65
2022/10/27 01:16:44;;;;;;;;;;;;;;;;;;351322;28;857;-66
2022/10/27 01:16:57;;;;;;;;;;;;;;;;;;351333;28;991;-66
2022/10/27 01:17:18;;;;;;;;;;;;;;;;;;351272;28;968;-66
2022/10/27 01:17:47;;;;;;;;;;;;;;;;;;351355;28;866;-65
2022/10/27 01:18:00;;;;;;;;;;;;;;;;;;351276;28;920;-66
2022/10/27 01:18:13;;;;;;;;;;;;;;;;;;351220;28;1090;-65
2022/10/27 01:18:27;;;;;;;;;;;;;;;;;;351218;28;1039;-65
2022/10/27 01:18:37;;;;;;;;;;;;;;;;;;351328;28;897;-65
2022/10/27 01:18:54;;;;;;;;;;;;;;;;;;351274;28;985;-66
2022/10/27 01:19:04;;;;;;;;;;;;;;;;;;351324;28;976;-65
2022/10/27 01:19:23;;;;;;;;;;;;;;;;;;351247;28;925;-66
2022/10/27 01:19:42;;;;;;;;;;;;;;;;;;351917;28;1311;-66
2022/10/27 01:20:11;;;;;;;;;;;;;;;;;;349835;28;924;-65
2022/10/27 01:20:37;;;;;;;;;;;;;;;;;;349846;28;1142;-65
2022/10/27 01:21:06;;;;;;;;;;;;;;;;;;349873;28;949;-66
2022/10/27 01:21:16;;;;;;;;;;;;;;;;;;349607;28;1972;-66